sensor_id;sensor_type;location;lat;lon;timestamp;pressure;altitude;pressure_sealevel;temperature;humidity
51530;BME280;37613;51.788;21.582;2022-07-06T00:01:38;100191.07;;;15.98;91.10
51530;BME280;37613;51.788;21.582;2022-07-06T00:05:40;100182.45;;;15.91;90.97
51530;BME280;37613;51.788;21.582;2022-07-06T00:09:42;100180.52;;;15.84;90.91
51530;BME280;37613;51.788;21.582;2022-07-06T00:13:44;100176.73;;;15.78;91.63
51530;BME280;37613;51.788;21.582;2022-07-06T00:17:46;100169.45;;;15.73;92.22
51530;BME280;37613;51.788;21.582;2022-07-06T00:21:48;100170.48;;;15.66;91.84
51530;BME280;37613;51.788;21.582;2022-07-06T00:25:49;100175.18;;;15.61;92.00
51530;BME280;37613;51.788;21.582;2022-07-06T00:29:51;100178.23;;;15.56;92.24
51530;BME280;37613;51.788;21.582;2022-07-06T00:33:54;100179.15;;;15.53;91.63
51530;BME280;37613;51.788;21.582;2022-07-06T00:37:55;100173.73;;;15.50;92.12
51530;BME280;37613;51.788;21.582;2022-07-06T00:41:57;100171.04;;;15.45;92.46
51530;BME280;37613;51.788;21.582;2022-07-06T00:45:59;100165.32;;;15.40;92.87
51530;BME280;37613;51.788;21.582;2022-07-06T00:50:02;100164.40;;;15.38;92.77
51530;BME280;37613;51.788;21.582;2022-07-06T00:54:21;100160.38;;;15.37;92.45
51530;BME280;37613;51.788;21.582;2022-07-06T00:58:24;100157.23;;;15.36;93.61
51530;BME280;37613;51.788;21.582;2022-07-06T01:02:26;100156.72;;;15.32;93.12
51530;BME280;37613;51.788;21.582;2022-07-06T01:06:28;100150.67;;;15.33;92.71
51530;BME280;37613;51.788;21.582;2022-07-06T01:10:30;100157.04;;;15.33;92.63
51530;BME280;37613;51.788;21.582;2022-07-06T01:14:32;100162.93;;;15.32;93.02
51530;BME280;37613;51.788;21.582;2022-07-06T01:18:34;100164.52;;;15.32;92.90
51530;BME280;37613;51.788;21.582;2022-07-06T01:22:37;100155.52;;;15.34;92.54
51530;BME280;37613;51.788;21.582;2022-07-06T01:26:39;100152.02;;;15.32;92.75
51530;BME280;37613;51.788;21.582;2022-07-06T01:30:41;100146.61;;;15.32;92.72
51530;BME280;37613;51.788;21.582;2022-07-06T01:34:43;100149.09;;;15.32;93.09
51530;BME280;37613;51.788;21.582;2022-07-06T01:42:52;100151.56;;;15.31;92.63
51530;BME280;37613;51.788;21.582;2022-07-06T01:46:53;100154.34;;;15.32;92.98
51530;BME280;37613;51.788;21.582;2022-07-06T01:50:55;100159.16;;;15.30;92.87
51530;BME280;37613;51.788;21.582;2022-07-06T01:54:57;100164.60;;;15.29;92.84
51530;BME280;37613;51.788;21.582;2022-07-06T01:58:59;100164.39;;;15.28;93.02
51530;BME280;37613;51.788;21.582;2022-07-06T02:03:01;100164.63;;;15.28;92.88
51530;BME280;37613;51.788;21.582;2022-07-06T02:07:03;100160.30;;;15.26;92.89
51530;BME280;37613;51.788;21.582;2022-07-06T02:11:06;100158.31;;;15.26;92.88
51530;BME280;37613;51.788;21.582;2022-07-06T02:15:08;100153.91;;;15.26;92.79
51530;BME280;37613;51.788;21.582;2022-07-06T02:19:10;100153.77;;;15.25;92.91
51530;BME280;37613;51.788;21.582;2022-07-06T02:23:12;100149.12;;;15.23;93.65
51530;BME280;37613;51.788;21.582;2022-07-06T02:27:14;100148.54;;;15.20;93.50
51530;BME280;37613;51.788;21.582;2022-07-06T02:31:16;100147.55;;;15.17;93.25
51530;BME280;37613;51.788;21.582;2022-07-06T02:35:18;100145.54;;;15.14;94.09
51530;BME280;37613;51.788;21.582;2022-07-06T02:39:20;100142.73;;;15.12;93.50
51530;BME280;37613;51.788;21.582;2022-07-06T02:43:22;100137.59;;;15.10;94.16
51530;BME280;37613;51.788;21.582;2022-07-06T02:47:23;100137.81;;;15.07;93.78
51530;BME280;37613;51.788;21.582;2022-07-06T02:51:25;100138.02;;;15.04;94.71
51530;BME280;37613;51.788;21.582;2022-07-06T02:55:27;100134.41;;;15.01;94.51
51530;BME280;37613;51.788;21.582;2022-07-06T02:59:29;100131.05;;;14.98;95.65
51530;BME280;37613;51.788;21.582;2022-07-06T03:03:32;100126.80;;;14.96;95.10
51530;BME280;37613;51.788;21.582;2022-07-06T03:07:34;100125.89;;;14.94;95.77
51530;BME280;37613;51.788;21.582;2022-07-06T03:11:35;100124.74;;;14.91;95.75
51530;BME280;37613;51.788;21.582;2022-07-06T03:15:37;100124.77;;;14.90;95.65
51530;BME280;37613;51.788;21.582;2022-07-06T03:19:39;100128.86;;;14.88;95.97
51530;BME280;37613;51.788;21.582;2022-07-06T03:23:41;100130.15;;;14.88;95.39
51530;BME280;37613;51.788;21.582;2022-07-06T03:27:43;100131.89;;;14.88;94.96
51530;BME280;37613;51.788;21.582;2022-07-06T03:31:44;100129.52;;;14.87;95.62
51530;BME280;37613;51.788;21.582;2022-07-06T03:35:46;100127.38;;;14.82;96.02
51530;BME280;37613;51.788;21.582;2022-07-06T03:39:48;100122.05;;;14.77;95.34
51530;BME280;37613;51.788;21.582;2022-07-06T03:43:50;100125.59;;;14.72;95.35
51530;BME280;37613;51.788;21.582;2022-07-06T03:47:52;100126.38;;;14.67;95.14
51530;BME280;37613;51.788;21.582;2022-07-06T03:51:54;100129.23;;;14.64;95.15
51530;BME280;37613;51.788;21.582;2022-07-06T03:55:56;100131.11;;;14.60;95.08
51530;BME280;37613;51.788;21.582;2022-07-06T04:00:17;100130.87;;;14.57;95.60
51530;BME280;37613;51.788;21.582;2022-07-06T04:04:19;100124.94;;;14.54;95.57
51530;BME280;37613;51.788;21.582;2022-07-06T04:08:21;100120.48;;;14.54;95.07
51530;BME280;37613;51.788;21.582;2022-07-06T04:12:22;100117.34;;;14.57;95.24
51530;BME280;37613;51.788;21.582;2022-07-06T04:16:24;100117.18;;;14.61;94.91
51530;BME280;37613;51.788;21.582;2022-07-06T04:20:26;100117.82;;;14.66;95.02
51530;BME280;37613;51.788;21.582;2022-07-06T04:24:28;100110.30;;;14.68;95.27
51530;BME280;37613;51.788;21.582;2022-07-06T04:28:30;100106.38;;;14.65;95.21
51530;BME280;37613;51.788;21.582;2022-07-06T04:32:31;100093.88;;;14.61;94.84
51530;BME280;37613;51.788;21.582;2022-07-06T04:36:33;100092.95;;;14.59;94.79
51530;BME280;37613;51.788;21.582;2022-07-06T04:40:35;100088.84;;;14.59;94.71
51530;BME280;37613;51.788;21.582;2022-07-06T04:44:37;100088.83;;;14.63;94.75
51530;BME280;37613;51.788;21.582;2022-07-06T04:48:39;100089.10;;;14.66;95.30
51530;BME280;37613;51.788;21.582;2022-07-06T04:52:41;100089.23;;;14.64;94.66
51530;BME280;37613;51.788;21.582;2022-07-06T04:56:43;100093.04;;;14.64;94.51
51530;BME280;37613;51.788;21.582;2022-07-06T05:00:45;100093.52;;;14.67;94.28
51530;BME280;37613;51.788;21.582;2022-07-06T05:04:47;100091.23;;;14.71;94.19
51530;BME280;37613;51.788;21.582;2022-07-06T05:08:49;100083.59;;;14.75;93.95
51530;BME280;37613;51.788;21.582;2022-07-06T05:12:51;100096.02;;;14.79;94.11
51530;BME280;37613;51.788;21.582;2022-07-06T05:16:53;100113.47;;;14.86;93.97
51530;BME280;37613;51.788;21.582;2022-07-06T05:20:54;100119.14;;;14.93;93.97
51530;BME280;37613;51.788;21.582;2022-07-06T05:24:56;100123.48;;;14.93;93.78
51530;BME280;37613;51.788;21.582;2022-07-06T05:28:58;100133.76;;;14.95;93.83
51530;BME280;37613;51.788;21.582;2022-07-06T05:33:01;100137.24;;;14.95;93.50
51530;BME280;37613;51.788;21.582;2022-07-06T05:37:02;100152.41;;;15.00;93.92
51530;BME280;37613;51.788;21.582;2022-07-06T05:41:04;100158.27;;;15.03;93.73
51530;BME280;37613;51.788;21.582;2022-07-06T05:45:07;100159.50;;;15.05;93.63
51530;BME280;37613;51.788;21.582;2022-07-06T05:49:08;100167.22;;;15.09;93.82
51530;BME280;37613;51.788;21.582;2022-07-06T05:53:29;100169.81;;;15.07;93.48
51530;BME280;37613;51.788;21.582;2022-07-06T05:57:31;100169.38;;;15.08;93.55
51530;BME280;37613;51.788;21.582;2022-07-06T06:01:32;100168.98;;;15.08;93.62
51530;BME280;37613;51.788;21.582;2022-07-06T06:05:34;100170.83;;;15.08;93.54
51530;BME280;37613;51.788;21.582;2022-07-06T06:09:36;100178.32;;;15.11;93.54
51530;BME280;37613;51.788;21.582;2022-07-06T06:13:38;100184.80;;;15.13;93.30
51530;BME280;37613;51.788;21.582;2022-07-06T06:17:40;100187.81;;;15.22;93.54
51530;BME280;37613;51.788;21.582;2022-07-06T06:21:42;100186.02;;;15.33;93.31
51530;BME280;37613;51.788;21.582;2022-07-06T06:25:44;100180.89;;;15.43;93.15
51530;BME280;37613;51.788;21.582;2022-07-06T06:29:45;100187.16;;;15.55;93.40
51530;BME280;37613;51.788;21.582;2022-07-06T06:33:47;100190.07;;;15.70;93.39
51530;BME280;37613;51.788;21.582;2022-07-06T06:37:49;100183.20;;;15.92;93.41
51530;BME280;37613;51.788;21.582;2022-07-06T06:41:51;100184.84;;;16.32;93.84
51530;BME280;37613;51.788;21.582;2022-07-06T06:45:53;100186.80;;;16.98;93.96
51530;BME280;37613;51.788;21.582;2022-07-06T06:49:55;100191.28;;;17.55;92.54
51530;BME280;37613;51.788;21.582;2022-07-06T06:53:57;100199.21;;;17.80;90.82
51530;BME280;37613;51.788;21.582;2022-07-06T06:57:58;100189.81;;;18.03;92.10
51530;BME280;37613;51.788;21.582;2022-07-06T07:02:00;100190.64;;;18.45;91.97
51530;BME280;37613;51.788;21.582;2022-07-06T07:06:02;100198.41;;;18.39;88.66
51530;BME280;37613;51.788;21.582;2022-07-06T07:10:05;100195.98;;;18.28;88.56
51530;BME280;37613;51.788;21.582;2022-07-06T07:14:07;100198.02;;;18.04;88.50
51530;BME280;37613;51.788;21.582;2022-07-06T07:18:09;100205.33;;;18.02;88.93
51530;BME280;37613;51.788;21.582;2022-07-06T07:22:11;100201.62;;;18.01;89.57
51530;BME280;37613;51.788;21.582;2022-07-06T07:26:13;100200.08;;;17.91;87.43
51530;BME280;37613;51.788;21.582;2022-07-06T07:30:15;100204.70;;;17.78;88.38
51530;BME280;37613;51.788;21.582;2022-07-06T07:34:17;100200.85;;;18.00;89.32
51530;BME280;37613;51.788;21.582;2022-07-06T07:38:19;100203.16;;;18.32;89.09
51530;BME280;37613;51.788;21.582;2022-07-06T07:42:21;100209.53;;;18.35;87.59
51530;BME280;37613;51.788;21.582;2022-07-06T07:46:22;100216.39;;;18.25;85.37
51530;BME280;37613;51.788;21.582;2022-07-06T07:50:24;100221.81;;;18.43;85.18
51530;BME280;37613;51.788;21.582;2022-07-06T07:54:28;100225.38;;;18.65;87.15
51530;BME280;37613;51.788;21.582;2022-07-06T07:58:29;100222.05;;;18.88;84.89
51530;BME280;37613;51.788;21.582;2022-07-06T08:02:31;100227.34;;;18.93;83.85
51530;BME280;37613;51.788;21.582;2022-07-06T08:06:33;100232.50;;;18.87;84.68
51530;BME280;37613;51.788;21.582;2022-07-06T08:10:35;100243.12;;;18.73;83.80
51530;BME280;37613;51.788;21.582;2022-07-06T08:14:37;100245.44;;;18.35;83.68
51530;BME280;37613;51.788;21.582;2022-07-06T08:18:39;100244.74;;;17.95;83.60
51530;BME280;37613;51.788;21.582;2022-07-06T08:22:42;100246.27;;;17.73;84.23
51530;BME280;37613;51.788;21.582;2022-07-06T08:26:44;100249.68;;;17.62;84.40
51530;BME280;37613;51.788;21.582;2022-07-06T08:30:46;100249.97;;;17.72;84.79
51530;BME280;37613;51.788;21.582;2022-07-06T08:34:49;100252.27;;;17.97;85.21
51530;BME280;37613;51.788;21.582;2022-07-06T08:38:51;100246.19;;;18.29;84.10
51530;BME280;37613;51.788;21.582;2022-07-06T08:42:53;100239.73;;;18.58;84.08
51530;BME280;37613;51.788;21.582;2022-07-06T08:46:57;100233.15;;;18.72;82.79
51530;BME280;37613;51.788;21.582;2022-07-06T08:51:00;100232.20;;;19.05;84.04
51530;BME280;37613;51.788;21.582;2022-07-06T08:55:02;100234.29;;;19.55;82.93
51530;BME280;37613;51.788;21.582;2022-07-06T08:59:05;100240.69;;;20.03;82.77
51530;BME280;37613;51.788;21.582;2022-07-06T09:03:11;100234.55;;;20.23;82.41
51530;BME280;37613;51.788;21.582;2022-07-06T09:07:13;100233.09;;;20.44;80.69
51530;BME280;37613;51.788;21.582;2022-07-06T09:11:16;100224.10;;;20.73;80.05
51530;BME280;37613;51.788;21.582;2022-07-06T09:15:18;100232.03;;;20.76;77.58
51530;BME280;37613;51.788;21.582;2022-07-06T09:19:20;100228.52;;;20.69;78.20
51530;BME280;37613;51.788;21.582;2022-07-06T09:23:23;100233.75;;;20.71;77.19
51530;BME280;37613;51.788;21.582;2022-07-06T09:27:25;100226.48;;;21.02;77.90
51530;BME280;37613;51.788;21.582;2022-07-06T09:31:27;100228.21;;;21.35;77.81
51530;BME280;37613;51.788;21.582;2022-07-06T09:35:37;100222.50;;;21.28;73.87
51530;BME280;37613;51.788;21.582;2022-07-06T09:39:40;100225.23;;;21.34;75.08
51530;BME280;37613;51.788;21.582;2022-07-06T09:43:42;100223.56;;;21.48;74.48
51530;BME280;37613;51.788;21.582;2022-07-06T09:47:47;100226.98;;;21.65;73.29
51530;BME280;37613;51.788;21.582;2022-07-06T09:51:52;100231.46;;;21.53;74.22
51530;BME280;37613;51.788;21.582;2022-07-06T09:55:56;100232.72;;;21.39;71.92
51530;BME280;37613;51.788;21.582;2022-07-06T09:59:59;100228.22;;;21.48;71.36
51530;BME280;37613;51.788;21.582;2022-07-06T10:04:01;100233.58;;;21.44;69.24
51530;BME280;37613;51.788;21.582;2022-07-06T10:08:05;100230.85;;;21.39;70.59
51530;BME280;37613;51.788;21.582;2022-07-06T10:12:09;100234.58;;;21.64;71.03
51530;BME280;37613;51.788;21.582;2022-07-06T10:16:16;100233.09;;;22.05;70.71
51530;BME280;37613;51.788;21.582;2022-07-06T10:20:19;100233.21;;;22.37;65.70
51530;BME280;37613;51.788;21.582;2022-07-06T10:24:21;100224.71;;;22.20;64.05
51530;BME280;37613;51.788;21.582;2022-07-06T10:28:23;100228.95;;;22.42;65.86
51530;BME280;37613;51.788;21.582;2022-07-06T10:32:28;100234.54;;;22.56;63.08
51530;BME280;37613;51.788;21.582;2022-07-06T10:36:30;100228.52;;;22.33;60.26
51530;BME280;37613;51.788;21.582;2022-07-06T10:40:34;100231.49;;;22.21;60.31
51530;BME280;37613;51.788;21.582;2022-07-06T10:44:55;100228.45;;;22.16;60.65
51530;BME280;37613;51.788;21.582;2022-07-06T10:48:57;100229.77;;;22.43;61.49
51530;BME280;37613;51.788;21.582;2022-07-06T10:52:59;100237.89;;;22.73;61.61
51530;BME280;37613;51.788;21.582;2022-07-06T10:57:08;100241.59;;;22.73;59.02
51530;BME280;37613;51.788;21.582;2022-07-06T11:01:12;100237.30;;;22.47;57.24
51530;BME280;37613;51.788;21.582;2022-07-06T11:05:40;100232.77;;;22.24;59.45
51530;BME280;37613;51.788;21.582;2022-07-06T11:09:56;100230.20;;;22.33;57.88
51530;BME280;37613;51.788;21.582;2022-07-06T11:18:12;100243.00;;;22.79;55.10
51530;BME280;37613;51.788;21.582;2022-07-06T11:22:15;100237.81;;;22.37;56.16
51530;BME280;37613;51.788;21.582;2022-07-06T11:26:17;100233.30;;;22.63;57.73
51530;BME280;37613;51.788;21.582;2022-07-06T11:30:20;100233.81;;;22.79;57.36
51530;BME280;37613;51.788;21.582;2022-07-06T11:34:23;100236.21;;;22.78;57.20
51530;BME280;37613;51.788;21.582;2022-07-06T11:38:26;100226.52;;;22.93;54.53
51530;BME280;37613;51.788;21.582;2022-07-06T11:42:28;100223.33;;;23.05;54.66
51530;BME280;37613;51.788;21.582;2022-07-06T11:46:34;100222.32;;;23.29;53.79
51530;BME280;37613;51.788;21.582;2022-07-06T11:50:36;100228.36;;;23.50;51.66
51530;BME280;37613;51.788;21.582;2022-07-06T11:54:41;100227.02;;;23.44;51.10
51530;BME280;37613;51.788;21.582;2022-07-06T11:58:44;100221.27;;;23.15;52.85
51530;BME280;37613;51.788;21.582;2022-07-06T12:03:01;100232.48;;;22.98;53.48
51530;BME280;37613;51.788;21.582;2022-07-06T12:07:07;100233.08;;;22.86;52.19
51530;BME280;37613;51.788;21.582;2022-07-06T12:11:10;100230.34;;;22.92;51.18
51530;BME280;37613;51.788;21.582;2022-07-06T12:15:26;100231.99;;;23.16;48.76
51530;BME280;37613;51.788;21.582;2022-07-06T12:19:28;100231.96;;;23.24;48.08
51530;BME280;37613;51.788;21.582;2022-07-06T12:23:44;100232.67;;;23.29;49.88
51530;BME280;37613;51.788;21.582;2022-07-06T12:27:47;100231.55;;;23.66;50.17
51530;BME280;37613;51.788;21.582;2022-07-06T12:31:53;100231.65;;;23.87;47.95
51530;BME280;37613;51.788;21.582;2022-07-06T12:35:56;100226.27;;;23.93;47.78
51530;BME280;37613;51.788;21.582;2022-07-06T12:39:58;100224.96;;;24.08;48.36
51530;BME280;37613;51.788;21.582;2022-07-06T12:44:09;100221.95;;;24.00;46.71
51530;BME280;37613;51.788;21.582;2022-07-06T12:48:12;100221.09;;;23.60;47.33
51530;BME280;37613;51.788;21.582;2022-07-06T12:52:15;100221.17;;;23.71;47.84
51530;BME280;37613;51.788;21.582;2022-07-06T12:56:17;100218.23;;;23.69;47.73
51530;BME280;37613;51.788;21.582;2022-07-06T13:00:19;100218.82;;;23.68;46.79
51530;BME280;37613;51.788;21.582;2022-07-06T13:04:27;100219.68;;;23.61;47.82
51530;BME280;37613;51.788;21.582;2022-07-06T13:08:30;100222.73;;;23.58;47.49
51530;BME280;37613;51.788;21.582;2022-07-06T13:12:31;100222.35;;;23.36;45.39
51530;BME280;37613;51.788;21.582;2022-07-06T13:16:34;100224.02;;;23.25;47.11
51530;BME280;37613;51.788;21.582;2022-07-06T13:20:36;100218.85;;;23.32;46.63
51530;BME280;37613;51.788;21.582;2022-07-06T13:24:38;100217.69;;;23.26;45.98
51530;BME280;37613;51.788;21.582;2022-07-06T13:28:40;100215.29;;;23.08;46.77
51530;BME280;37613;51.788;21.582;2022-07-06T13:32:42;100218.70;;;23.04;47.23
51530;BME280;37613;51.788;21.582;2022-07-06T13:36:43;100218.46;;;23.06;47.03
51530;BME280;37613;51.788;21.582;2022-07-06T13:40:45;100224.38;;;22.91;46.35
51530;BME280;37613;51.788;21.582;2022-07-06T13:44:47;100221.16;;;22.86;46.47
51530;BME280;37613;51.788;21.582;2022-07-06T13:48:49;100223.23;;;22.86;47.39
51530;BME280;37613;51.788;21.582;2022-07-06T13:52:51;100222.88;;;22.91;47.77
51530;BME280;37613;51.788;21.582;2022-07-06T13:56:53;100225.98;;;22.88;47.65
51530;BME280;37613;51.788;21.582;2022-07-06T14:00:55;100224.27;;;23.01;48.52
51530;BME280;37613;51.788;21.582;2022-07-06T14:04:57;100220.69;;;23.30;47.99
51530;BME280;37613;51.788;21.582;2022-07-06T14:08:58;100220.42;;;23.55;47.74
51530;BME280;37613;51.788;21.582;2022-07-06T14:13:00;100221.23;;;23.49;45.05
51530;BME280;37613;51.788;21.582;2022-07-06T14:17:03;100226.37;;;23.29;45.72
51530;BME280;37613;51.788;21.582;2022-07-06T14:21:05;100223.48;;;23.20;45.92
51530;BME280;37613;51.788;21.582;2022-07-06T14:25:07;100223.44;;;23.19;46.04
51530;BME280;37613;51.788;21.582;2022-07-06T14:29:10;100216.37;;;23.14;46.32
51530;BME280;37613;51.788;21.582;2022-07-06T14:33:13;100214.34;;;22.95;46.17
51530;BME280;37613;51.788;21.582;2022-07-06T14:37:16;100213.27;;;22.82;46.53
51530;BME280;37613;51.788;21.582;2022-07-06T14:41:18;100204.02;;;22.78;46.68
51530;BME280;37613;51.788;21.582;2022-07-06T14:45:19;100207.85;;;22.73;47.07
51530;BME280;37613;51.788;21.582;2022-07-06T14:49:21;100205.90;;;22.64;47.38
51530;BME280;37613;51.788;21.582;2022-07-06T14:53:23;100203.02;;;22.60;47.58
51530;BME280;37613;51.788;21.582;2022-07-06T14:57:25;100199.00;;;22.60;47.74
51530;BME280;37613;51.788;21.582;2022-07-06T15:01:27;100196.09;;;22.60;48.15
51530;BME280;37613;51.788;21.582;2022-07-06T15:05:29;100193.98;;;22.56;47.82
51530;BME280;37613;51.788;21.582;2022-07-06T15:09:31;100187.36;;;22.46;48.25
51530;BME280;37613;51.788;21.582;2022-07-06T15:13:37;100189.92;;;22.43;48.21
51530;BME280;37613;51.788;21.582;2022-07-06T15:17:39;100184.44;;;22.40;48.37
51530;BME280;37613;51.788;21.582;2022-07-06T15:21:41;100183.31;;;22.37;48.06
51530;BME280;37613;51.788;21.582;2022-07-06T15:25:42;100182.75;;;22.30;48.31
51530;BME280;37613;51.788;21.582;2022-07-06T15:29:44;100180.05;;;22.44;48.15
51530;BME280;37613;51.788;21.582;2022-07-06T15:33:49;100179.42;;;22.65;47.96
51530;BME280;37613;51.788;21.582;2022-07-06T15:37:51;100170.98;;;22.82;47.47
51530;BME280;37613;51.788;21.582;2022-07-06T15:41:53;100171.42;;;22.98;47.32
51530;BME280;37613;51.788;21.582;2022-07-06T15:45:58;100176.88;;;23.03;46.95
51530;BME280;37613;51.788;21.582;2022-07-06T15:50:01;100178.63;;;22.78;45.99
51530;BME280;37613;51.788;21.582;2022-07-06T15:54:03;100186.56;;;22.49;46.44
51530;BME280;37613;51.788;21.582;2022-07-06T15:58:05;100184.46;;;22.33;46.74
51530;BME280;37613;51.788;21.582;2022-07-06T16:02:07;100186.07;;;22.23;46.98
51530;BME280;37613;51.788;21.582;2022-07-06T16:06:09;100183.89;;;22.15;46.82
51530;BME280;37613;51.788;21.582;2022-07-06T16:10:12;100184.00;;;22.09;47.13
51530;BME280;37613;51.788;21.582;2022-07-06T16:14:13;100187.35;;;22.05;47.07
51530;BME280;37613;51.788;21.582;2022-07-06T16:18:15;100190.44;;;22.07;47.26
51530;BME280;37613;51.788;21.582;2022-07-06T16:22:17;100197.86;;;22.03;47.41
51530;BME280;37613;51.788;21.582;2022-07-06T16:26:19;100203.78;;;21.76;49.15
51530;BME280;37613;51.788;21.582;2022-07-06T16:30:21;100209.77;;;21.42;50.34
51530;BME280;37613;51.788;21.582;2022-07-06T16:34:23;100213.20;;;21.16;50.92
51530;BME280;37613;51.788;21.582;2022-07-06T16:38:25;100211.59;;;20.98;52.16
51530;BME280;37613;51.788;21.582;2022-07-06T16:42:27;100215.63;;;20.78;52.37
51530;BME280;37613;51.788;21.582;2022-07-06T16:46:29;100226.05;;;20.61;53.02
51530;BME280;37613;51.788;21.582;2022-07-06T16:50:31;100229.52;;;20.41;54.72
51530;BME280;37613;51.788;21.582;2022-07-06T16:54:33;100229.89;;;20.14;54.92
51530;BME280;37613;51.788;21.582;2022-07-06T16:58:35;100226.56;;;19.88;55.37
51530;BME280;37613;51.788;21.582;2022-07-06T17:02:37;100225.20;;;19.71;55.84
51530;BME280;37613;51.788;21.582;2022-07-06T17:06:39;100227.23;;;19.57;55.74
51530;BME280;37613;51.788;21.582;2022-07-06T17:10:41;100226.75;;;19.48;55.92
51530;BME280;37613;51.788;21.582;2022-07-06T17:14:42;100234.45;;;19.41;56.58
51530;BME280;37613;51.788;21.582;2022-07-06T17:18:45;100242.91;;;19.35;56.31
51530;BME280;37613;51.788;21.582;2022-07-06T17:22:47;100238.86;;;19.28;56.54
51530;BME280;37613;51.788;21.582;2022-07-06T17:26:49;100247.38;;;19.18;56.94
51530;BME280;37613;51.788;21.582;2022-07-06T17:30:51;100246.40;;;19.09;56.75
51530;BME280;37613;51.788;21.582;2022-07-06T17:34:52;100243.80;;;19.05;56.68
51530;BME280;37613;51.788;21.582;2022-07-06T17:38:54;100243.55;;;19.01;56.75
51530;BME280;37613;51.788;21.582;2022-07-06T17:42:57;100242.56;;;18.97;56.69
51530;BME280;37613;51.788;21.582;2022-07-06T17:46:59;100243.52;;;18.92;56.77
51530;BME280;37613;51.788;21.582;2022-07-06T17:51:01;100244.48;;;18.83;56.69
51530;BME280;37613;51.788;21.582;2022-07-06T17:55:03;100244.81;;;18.73;56.69
51530;BME280;37613;51.788;21.582;2022-07-06T17:59:05;100249.55;;;18.64;56.66
51530;BME280;37613;51.788;21.582;2022-07-06T18:03:08;100252.90;;;18.59;56.91
51530;BME280;37613;51.788;21.582;2022-07-06T18:07:10;100256.04;;;18.59;56.91
51530;BME280;37613;51.788;21.582;2022-07-06T18:11:13;100256.64;;;18.60;57.03
51530;BME280;37613;51.788;21.582;2022-07-06T18:15:15;100260.42;;;18.62;57.23
51530;BME280;37613;51.788;21.582;2022-07-06T18:19:18;100257.89;;;18.61;57.34
51530;BME280;37613;51.788;21.582;2022-07-06T18:23:21;100261.67;;;18.58;57.86
51530;BME280;37613;51.788;21.582;2022-07-06T18:27:23;100261.50;;;18.48;57.81
51530;BME280;37613;51.788;21.582;2022-07-06T18:31:26;100257.59;;;18.38;58.00
51530;BME280;37613;51.788;21.582;2022-07-06T18:35:28;100262.89;;;18.32;58.16
51530;BME280;37613;51.788;21.582;2022-07-06T18:39:30;100263.05;;;18.24;58.23
51530;BME280;37613;51.788;21.582;2022-07-06T18:43:32;100263.74;;;18.17;58.63
51530;BME280;37613;51.788;21.582;2022-07-06T18:47:35;100272.40;;;18.11;58.84
51530;BME280;37613;51.788;21.582;2022-07-06T18:51:37;100271.77;;;18.06;59.10
51530;BME280;37613;51.788;21.582;2022-07-06T18:55:39;100277.31;;;18.02;59.33
51530;BME280;37613;51.788;21.582;2022-07-06T18:59:41;100279.68;;;17.98;59.55
51530;BME280;37613;51.788;21.582;2022-07-06T19:03:43;100282.56;;;17.92;59.83
51530;BME280;37613;51.788;21.582;2022-07-06T19:07:46;100291.60;;;17.84;60.19
51530;BME280;37613;51.788;21.582;2022-07-06T19:11:48;100294.81;;;17.74;60.43
51530;BME280;37613;51.788;21.582;2022-07-06T19:15:50;100297.60;;;17.72;60.54
51530;BME280;37613;51.788;21.582;2022-07-06T19:19:52;100305.32;;;17.70;60.89
51530;BME280;37613;51.788;21.582;2022-07-06T19:23:53;100312.25;;;17.67;61.06
51530;BME280;37613;51.788;21.582;2022-07-06T19:27:56;100315.84;;;17.62;61.27
51530;BME280;37613;51.788;21.582;2022-07-06T19:31:58;100317.15;;;17.54;61.52
51530;BME280;37613;51.788;21.582;2022-07-06T19:36:04;100318.33;;;17.47;61.82
51530;BME280;37613;51.788;21.582;2022-07-06T19:40:06;100318.48;;;17.35;61.94
51530;BME280;37613;51.788;21.582;2022-07-06T19:44:09;100321.04;;;17.19;62.16
51530;BME280;37613;51.788;21.582;2022-07-06T19:48:11;100323.68;;;17.03;62.55
51530;BME280;37613;51.788;21.582;2022-07-06T19:52:13;100327.62;;;16.88;62.78
51530;BME280;37613;51.788;21.582;2022-07-06T19:56:15;100325.04;;;16.68;63.11
51530;BME280;37613;51.788;21.582;2022-07-06T20:00:17;100331.39;;;16.52;63.06
51530;BME280;37613;51.788;21.582;2022-07-06T20:04:19;100333.02;;;16.32;63.54
51530;BME280;37613;51.788;21.582;2022-07-06T20:08:21;100328.41;;;16.20;63.77
51530;BME280;37613;51.788;21.582;2022-07-06T20:12:23;100327.28;;;16.05;64.09
51530;BME280;37613;51.788;21.582;2022-07-06T20:16:28;100327.42;;;15.91;64.32
51530;BME280;37613;51.788;21.582;2022-07-06T20:20:30;100329.20;;;15.77;64.52
51530;BME280;37613;51.788;21.582;2022-07-06T20:24:33;100330.05;;;15.62;64.65
51530;BME280;37613;51.788;21.582;2022-07-06T20:28:35;100335.45;;;15.43;65.03
51530;BME280;37613;51.788;21.582;2022-07-06T20:32:40;100335.48;;;15.28;65.20
51530;BME280;37613;51.788;21.582;2022-07-06T20:36:42;100334.33;;;15.16;65.52
51530;BME280;37613;51.788;21.582;2022-07-06T20:40:44;100335.50;;;15.03;65.62
51530;BME280;37613;51.788;21.582;2022-07-06T20:44:46;100337.02;;;14.92;65.76
51530;BME280;37613;51.788;21.582;2022-07-06T20:48:49;100339.77;;;14.80;65.94
51530;BME280;37613;51.788;21.582;2022-07-06T20:52:51;100338.67;;;14.68;66.37
51530;BME280;37613;51.788;21.582;2022-07-06T20:56:53;100339.05;;;14.58;66.25
51530;BME280;37613;51.788;21.582;2022-07-06T21:00:55;100333.71;;;14.47;66.54